Time;durP1;ratioP1;P1;durP2;ratioP2;P2;SDS_P1;SDS_P2;PMS_P1;PMS_P2;Temp;Humidity;BMP_temperature;BMP_pressure;BME280_temperature;BME280_humidity;BME280_pressure;Samples;Min_cycle;Max_cycle;Signal;HPM_P1;HPM_P2
2023/01/30 00:00:30;;;;;;;29.98;18.73;;;7.80;75.60;;;;;;5114552;28;20359;-66
2023/01/30 00:02:56;;;;;;;30.30;18.83;;;7.70;75.60;;;;;;5110796;28;20123;-66
2023/01/30 00:05:22;;;;;;;30.98;19.15;;;7.80;75.70;;;;;;5105636;28;20115;-66
2023/01/30 00:07:48;;;;;;;32.38;20.48;;;7.70;75.70;;;;;;5112996;28;20039;-65
2023/01/30 00:10:14;;;;;;;29.40;18.85;;;7.80;75.80;;;;;;5114170;28;20077;-66
2023/01/30 00:12:39;;;;;;;29.98;18.42;;;7.80;75.80;;;;;;5112722;28;20035;-66
2023/01/30 00:15:06;;;;;;;31.52;18.73;;;7.70;75.90;;;;;;5112693;28;20444;-66
2023/01/30 00:17:32;;;;;;;28.73;18.25;;;7.80;76.00;;;;;;5109228;28;20015;-66
2023/01/30 00:19:57;;;;;;;27.45;17.65;;;7.80;76.00;;;;;;5112287;28;20034;-66
2023/01/30 00:22:23;;;;;;;29.05;18.65;;;7.80;76.10;;;;;;5112340;28;20451;-66
2023/01/30 00:24:49;;;;;;;31.73;20.33;;;7.80;76.10;;;;;;5110801;28;20087;-66
2023/01/30 00:27:15;;;;;;;33.95;20.13;;;7.80;76.10;;;;;;5113244;28;20035;-66
2023/01/30 00:29:41;;;;;;;34.55;20.85;;;7.80;76.10;;;;;;5112604;28;20026;-66
2023/01/30 00:32:07;;;;;;;33.03;21.13;;;7.80;76.10;;;;;;5106107;28;20360;-65
2023/01/30 00:34:32;;;;;;;30.52;20.27;;;7.80;76.10;;;;;;5113316;28;20073;-66
2023/01/30 00:36:59;;;;;;;30.17;19.10;;;7.90;76.30;;;;;;5111899;28;20524;-66
2023/01/30 00:39:26;;;;;;;34.65;20.63;;;7.80;76.30;;;;;;5111387;28;20118;-66
2023/01/30 00:47:22;;;;;;;30.33;21.05;;;7.90;76.50;;;;;;5112917;28;20456;-66
2023/01/30 00:49:48;;;;;;;31.15;21.08;;;7.90;76.60;;;;;;5105714;28;20089;-66
2023/01/30 00:52:15;;;;;;;32.78;20.73;;;7.90;76.70;;;;;;5112281;28;20054;-66
2023/01/30 00:54:41;;;;;;;30.92;20.00;;;7.80;76.70;;;;;;5111036;28;20047;-66
2023/01/30 00:57:06;;;;;;;34.13;21.27;;;7.90;76.90;;;;;;5111968;28;20081;-66
2023/01/30 00:59:32;;;;;;;30.88;20.02;;;7.90;77.00;;;;;;5112205;28;20038;-66
2023/01/30 01:01:58;;;;;;;31.13;20.52;;;7.80;77.00;;;;;;5092308;28;20403;-66
2023/01/30 01:04:24;;;;;;;30.67;20.17;;;7.80;77.10;;;;;;5102736;28;20026;-66
2023/01/30 01:06:50;;;;;;;30.00;19.60;;;7.90;77.20;;;;;;5107281;28;20059;-66
2023/01/30 01:09:16;;;;;;;31.92;20.30;;;7.90;77.30;;;;;;5112221;28;20016;-66
2023/01/30 01:11:42;;;;;;;32.05;20.20;;;7.90;77.30;;;;;;5112257;28;20352;-66
2023/01/30 01:14:08;;;;;;;29.80;20.50;;;7.90;77.40;;;;;;5113590;28;20473;-66
2023/01/30 01:16:34;;;;;;;30.63;20.38;;;7.90;77.40;;;;;;5110900;28;20026;-65
2023/01/30 01:19:00;;;;;;;29.67;20.17;;;7.90;77.50;;;;;;5108311;28;20027;-66
2023/01/30 01:21:26;;;;;;;31.50;19.67;;;8.00;77.70;;;;;;5112770;28;20474;-66
2023/01/30 01:23:55;;;;;;;32.55;19.90;;;7.90;77.70;;;;;;5117263;28;20019;-66
2023/01/30 01:26:21;;;;;;;31.38;20.33;;;8.00;77.70;;;;;;5118915;27;20479;-66
2023/01/30 01:28:47;;;;;;;34.22;19.85;;;8.00;77.80;;;;;;5105356;28;20065;-66
2023/01/30 01:31:15;;;;;;;31.75;20.35;;;8.00;77.80;;;;;;5116021;28;20095;-66
2023/01/30 01:33:40;;;;;;;29.92;19.80;;;8.00;77.90;;;;;;5116301;28;20034;-66
2023/01/30 01:36:07;;;;;;;29.00;18.52;;;8.00;77.90;;;;;;5112685;27;20472;-66
2023/01/30 01:38:33;;;;;;;36.53;21.00;;;8.00;78.00;;;;;;5109656;28;20055;-66
2023/01/30 01:41:04;;;;;;;33.55;20.38;;;8.10;78.10;;;;;;5118365;27;20052;-66
2023/01/30 01:44:09;;;;;;;28.25;19.08;;;8.00;78.10;;;;;;5116181;28;20110;-65
2023/01/30 01:46:37;;;;;;;28.20;18.63;;;8.10;78.30;;;;;;5107556;28;20054;-66
2023/01/30 01:49:12;;;;;;;28.75;19.20;;;8.10;78.30;;;;;;5102233;28;20058;-66
2023/01/30 01:51:51;;;;;;;31.80;20.02;;;8.00;78.30;;;;;;5106953;28;20023;-66
2023/01/30 01:54:33;;;;;;;30.73;19.85;;;8.00;78.40;;;;;;5109991;28;20353;-66
2023/01/30 01:57:03;;;;;;;27.80;18.67;;;8.10;78.60;;;;;;5109675;28;20475;-66
2023/01/30 01:59:38;;;;;;;29.08;18.75;;;8.10;78.60;;;;;;5098295;28;20314;-66
2023/01/30 02:02:08;;;;;;;29.63;19.80;;;8.10;78.70;;;;;;5114707;27;20430;-66
2023/01/30 02:07:21;;;;;;;29.02;18.65;;;8.10;78.70;;;;;;5107950;28;20038;-66
2023/01/30 02:09:49;;;;;;;26.58;17.30;;;8.10;78.60;;;;;;5113294;28;20367;-65
2023/01/30 02:12:15;;;;;;;28.52;17.90;;;8.10;78.70;;;;;;5109779;28;20375;-65
2023/01/30 02:14:42;;;;;;;32.70;19.55;;;8.10;78.80;;;;;;5117053;28;20131;-66
2023/01/30 02:17:08;;;;;;;30.13;20.20;;;8.10;78.90;;;;;;5105966;28;20460;-66
2023/01/30 02:19:34;;;;;;;29.40;18.27;;;8.10;78.90;;;;;;5113885;28;20035;-66
2023/01/30 02:22:14;;;;;;;26.95;17.42;;;8.10;78.90;;;;;;5102009;28;20466;-66
2023/01/30 02:24:55;;;;;;;26.33;16.55;;;8.20;79.10;;;;;;5113488;28;20366;-66
2023/01/30 02:27:33;;;;;;;26.23;17.08;;;8.20;79.10;;;;;;5107962;28;20023;-66
2023/01/30 02:30:08;;;;;;;26.08;16.73;;;8.20;79.10;;;;;;5120749;27;20024;-66
2023/01/30 02:32:57;;;;;;;26.70;16.88;;;8.20;79.20;;;;;;5106995;28;20118;-65
2023/01/30 02:35:41;;;;;;;23.92;16.25;;;8.20;79.30;;;;;;5104470;28;20060;-66
2023/01/30 02:38:19;;;;;;;22.75;15.05;;;8.20;79.30;;;;;;5111321;28;20038;-66
2023/01/30 02:41:18;;;;;;;23.98;14.85;;;8.20;79.40;;;;;;5115735;27;20036;-66
2023/01/30 02:44:05;;;;;;;20.15;14.10;;;8.20;79.50;;;;;;5113018;28;20031;-66
2023/01/30 02:46:55;;;;;;;22.08;13.20;;;8.20;79.50;;;;;;5112213;28;20076;-66
2023/01/30 02:49:44;;;;;;;20.83;12.55;;;8.20;79.60;;;;;;5111195;27;20039;-66
2023/01/30 02:52:13;;;;;;;18.95;11.68;;;8.30;79.70;;;;;;5114246;28;20024;-66
2023/01/30 02:54:38;;;;;;;21.48;11.98;;;8.30;79.80;;;;;;5114966;28;20039;-66
2023/01/30 02:57:20;;;;;;;20.00;11.13;;;8.30;79.80;;;;;;5112690;28;20059;-66
2023/01/30 02:59:52;;;;;;;19.02;10.23;;;8.30;80.00;;;;;;5111890;28;20065;-65
2023/01/30 03:02:49;;;;;;;14.77;9.50;;;8.40;80.10;;;;;;5130575;27;20020;-65
2023/01/30 03:05:30;;;;;;;15.43;9.15;;;8.40;80.80;;;;;;5112110;28;20027;-66
2023/01/30 03:08:17;;;;;;;13.43;8.32;;;8.40;80.30;;;;;;5110101;28;20028;-66
2023/01/30 03:10:46;;;;;;;12.93;7.95;;;8.40;80.30;;;;;;5127423;27;20089;-65
2023/01/30 03:13:20;;;;;;;12.77;7.45;;;8.40;80.40;;;;;;5104628;28;20012;-66
2023/01/30 03:15:56;;;;;;;14.00;7.75;;;8.40;80.50;;;;;;5114042;28;20012;-66
2023/01/30 03:18:22;;;;;;;12.00;7.38;;;8.40;80.70;;;;;;5112942;28;20023;-65
2023/01/30 03:20:48;;;;;;;13.95;7.40;;;8.40;80.70;;;;;;5112818;28;20050;-65
2023/01/30 03:23:13;;;;;;;13.23;7.72;;;8.40;80.80;;;;;;5094906;28;20020;-66
2023/01/30 03:25:42;;;;;;;13.32;7.95;;;8.40;80.90;;;;;;5113873;28;20290;-66
2023/01/30 03:28:09;;;;;;;13.52;7.95;;;8.40;81.00;;;;;;5094610;28;20016;-66
2023/01/30 03:30:35;;;;;;;13.20;7.45;;;8.50;81.10;;;;;;5111778;28;20026;-65
2023/01/30 03:33:09;;;;;;;13.43;7.03;;;8.40;81.70;;;;;;5102591;28;20092;-66
2023/01/30 03:35:37;;;;;;;12.52;7.40;;;8.50;81.20;;;;;;5103712;28;20024;-65
2023/01/30 03:38:03;;;;;;;13.70;7.70;;;8.50;81.20;;;;;;5113642;28;20076;-66
2023/01/30 03:40:29;;;;;;;13.18;7.35;;;8.50;81.20;;;;;;5092794;28;20051;-66
2023/01/30 03:42:55;;;;;;;12.70;6.72;;;8.50;81.40;;;;;;5113073;28;20034;-66
2023/01/30 03:45:22;;;;;;;13.63;7.22;;;8.50;81.50;;;;;;5101522;28;20020;-66
2023/01/30 03:47:48;;;;;;;12.77;6.57;;;8.50;81.60;;;;;;5100187;28;20048;-65
2023/01/30 03:50:15;;;;;;;12.30;6.63;;;8.50;81.70;;;;;;5099548;28;20114;-66
2023/01/30 03:52:42;;;;;;;11.70;6.35;;;8.50;81.70;;;;;;5114694;28;20107;-66
2023/01/30 03:55:12;;;;;;;10.68;6.15;;;8.50;81.80;;;;;;5112482;28;21295;-66
2023/01/30 03:57:38;;;;;;;11.57;6.70;;;8.50;81.80;;;;;;5108218;28;20513;-65
2023/01/30 04:00:04;;;;;;;11.57;5.93;;;8.50;81.80;;;;;;5106368;28;20031;-66
2023/01/30 04:02:41;;;;;;;10.85;5.55;;;8.50;81.90;;;;;;5113452;28;20404;-66
2023/01/30 04:05:08;;;;;;;11.63;6.13;;;8.50;81.90;;;;;;5113215;28;20047;-66
2023/01/30 04:07:34;;;;;;;12.63;6.47;;;8.50;82.00;;;;;;5095317;28;20451;-66
2023/01/30 04:10:00;;;;;;;10.23;5.38;;;8.50;82.00;;;;;;5111028;28;20027;-66
2023/01/30 04:12:25;;;;;;;9.70;5.10;;;8.50;82.00;;;;;;5113224;28;20084;-66
2023/01/30 04:14:55;;;;;;;11.95;5.63;;;8.60;82.10;;;;;;5111696;28;20178;-66
2023/01/30 04:17:31;;;;;;;12.80;5.78;;;8.60;82.10;;;;;;5113440;28;20142;-66
2023/01/30 04:19:56;;;;;;;12.55;5.53;;;8.60;82.10;;;;;;5103810;28;20036;-65
2023/01/30 04:22:22;;;;;;;11.35;5.53;;;8.60;82.20;;;;;;5112709;28;20032;-66
2023/01/30 04:24:48;;;;;;;11.45;5.15;;;8.50;82.30;;;;;;5112731;28;20088;-66
2023/01/30 04:27:14;;;;;;;10.45;5.72;;;8.50;82.30;;;;;;5094959;28;20028;-66
2023/01/30 04:29:57;;;;;;;15.82;5.72;;;8.50;82.40;;;;;;5110837;28;20100;-65
2023/01/30 04:32:25;;;;;;;14.90;5.63;;;8.50;82.50;;;;;;5111846;28;20020;-66
2023/01/30 04:34:51;;;;;;;13.40;6.10;;;8.50;82.60;;;;;;5112510;28;20054;-66
2023/01/30 04:37:17;;;;;;;14.30;6.43;;;8.50;82.60;;;;;;5112085;28;20116;-66
2023/01/30 04:39:43;;;;;;;12.07;6.13;;;8.50;82.60;;;;;;5121155;28;20024;-66
2023/01/30 04:42:09;;;;;;;10.93;6.28;;;8.50;82.70;;;;;;5110440;28;20032;-66
2023/01/30 04:44:43;;;;;;;13.00;6.18;;;8.60;82.80;;;;;;5111688;28;20118;-66
2023/01/30 04:47:16;;;;;;;12.23;5.32;;;8.60;82.80;;;;;;5104660;28;20024;-66
2023/01/30 04:49:42;;;;;;;9.38;4.85;;;8.50;82.70;;;;;;5111370;28;20116;-66
2023/01/30 04:52:11;;;;;;;10.88;5.70;;;8.50;82.70;;;;;;5105996;28;20337;-66
2023/01/30 04:54:36;;;;;;;11.43;6.07;;;8.60;82.80;;;;;;5107785;28;20039;-66
2023/01/30 04:57:03;;;;;;;16.40;6.03;;;8.60;82.90;;;;;;5123679;27;20019;-66
2023/01/30 04:59:28;;;;;;;13.18;6.03;;;8.60;83.00;;;;;;5115997;28;20087;-65
2023/01/30 05:01:55;;;;;;;10.65;5.22;;;8.50;83.10;;;;;;5114145;28;20028;-66
2023/01/30 05:04:20;;;;;;;11.68;5.50;;;8.50;83.10;;;;;;5097414;28;20050;-65
2023/01/30 05:06:46;;;;;;;14.02;5.72;;;8.50;83.20;;;;;;5115124;28;20487;-66
2023/01/30 05:09:12;;;;;;;13.50;5.78;;;8.60;83.30;;;;;;5117892;28;20047;-65
2023/01/30 05:11:37;;;;;;;12.02;4.82;;;8.60;83.20;;;;;;5111804;28;20372;-66
2023/01/30 05:14:03;;;;;;;12.38;5.07;;;8.60;83.20;;;;;;5114176;28;20024;-66
2023/01/30 05:16:29;;;;;;;12.23;5.32;;;8.60;83.10;;;;;;5116515;28;20076;-66
2023/01/30 05:18:55;;;;;;;11.95;5.53;;;8.60;83.20;;;;;;5116255;28;20020;-66
2023/01/30 05:21:27;;;;;;;10.32;4.93;;;8.60;83.10;;;;;;5096377;28;20020;-66
2023/01/30 05:23:54;;;;;;;10.25;4.65;;;8.60;83.20;;;;;;5114240;28;20418;-66
2023/01/30 05:26:20;;;;;;;15.25;5.15;;;8.70;83.20;;;;;;5115674;28;20019;-66
2023/01/30 05:28:55;;;;;;;9.73;4.13;;;8.60;83.20;;;;;;5116356;28;20162;-65
2023/01/30 05:31:21;;;;;;;15.13;4.40;;;8.70;83.30;;;;;;5097256;28;20116;-66
2023/01/30 05:33:48;;;;;;;8.50;3.67;;;8.70;83.20;;;;;;5109505;28;20032;-66
2023/01/30 05:36:16;;;;;;;11.60;4.05;;;8.70;83.20;;;;;;5117269;28;20027;-66
2023/01/30 05:38:43;;;;;;;11.38;4.07;;;8.70;83.10;;;;;;5115497;28;20400;-66
2023/01/30 05:41:11;;;;;;;14.95;3.75;;;8.70;83.10;;;;;;5113590;28;20019;-66
2023/01/30 05:43:36;;;;;;;12.35;3.92;;;8.80;83.10;;;;;;5111335;28;20031;-66
2023/01/30 05:46:04;;;;;;;12.18;3.15;;;8.80;83.10;;;;;;5116402;28;20041;-66
2023/01/30 05:48:31;;;;;;;13.18;3.30;;;8.80;83.10;;;;;;5115385;27;20428;-66
2023/01/30 05:50:58;;;;;;;9.00;3.15;;;8.80;83.10;;;;;;5116632;28;20020;-66
2023/01/30 05:53:27;;;;;;;11.95;3.15;;;8.80;83.00;;;;;;5109380;28;20331;-66
2023/01/30 05:55:58;;;;;;;11.80;3.20;;;8.80;83.00;;;;;;5113761;28;20459;-65
2023/01/30 05:58:26;;;;;;;8.90;2.88;;;8.80;82.90;;;;;;5114285;28;20039;-66
2023/01/30 06:00:52;;;;;;;10.25;3.22;;;8.80;82.90;;;;;;5112998;28;20051;-65
2023/01/30 06:03:19;;;;;;;11.55;3.63;;;8.80;82.90;;;;;;5112667;28;20057;-65
2023/01/30 06:05:45;;;;;;;13.10;3.10;;;8.80;82.80;;;;;;5112955;28;20080;-66
2023/01/30 06:08:11;;;;;;;10.32;2.80;;;8.80;82.70;;;;;;5115121;28;20027;-66
2023/01/30 06:10:37;;;;;;;13.13;2.65;;;8.80;82.60;;;;;;5111901;28;20409;-65
2023/01/30 06:13:03;;;;;;;11.40;2.78;;;8.80;82.50;;;;;;5111607;28;20030;-66
2023/01/30 06:15:28;;;;;;;11.13;2.95;;;8.80;82.40;;;;;;5112343;28;20042;-66
2023/01/30 06:17:54;;;;;;;10.13;2.33;;;8.80;82.40;;;;;;5116587;28;20024;-66
2023/01/30 06:20:20;;;;;;;9.18;2.25;;;8.80;82.30;;;;;;5113630;28;20039;-66
2023/01/30 06:22:47;;;;;;;9.88;2.38;;;8.80;82.10;;;;;;5110815;28;20035;-66
2023/01/30 06:25:14;;;;;;;9.57;2.20;;;8.70;81.90;;;;;;5108941;28;20452;-66
2023/01/30 06:27:39;;;;;;;10.98;2.78;;;8.70;81.80;;;;;;5115594;28;20106;-66
2023/01/30 06:30:06;;;;;;;11.73;2.95;;;8.70;81.70;;;;;;5114007;28;20195;-65
2023/01/30 06:32:31;;;;;;;8.60;2.30;;;8.70;81.50;;;;;;5114036;28;20463;-66
2023/01/30 06:34:57;;;;;;;8.43;2.22;;;8.70;81.40;;;;;;5113815;28;20035;-66
2023/01/30 06:37:23;;;;;;;6.50;2.55;;;8.70;81.20;;;;;;5116525;28;20038;-66
2023/01/30 06:39:49;;;;;;;8.05;2.17;;;8.70;81.00;;;;;;5115124;28;20024;-66
2023/01/30 06:42:14;;;;;;;12.35;2.78;;;8.70;80.90;;;;;;5097199;28;20118;-66
2023/01/30 06:44:40;;;;;;;11.85;2.72;;;8.60;80.70;;;;;;5111518;28;20026;-65
2023/01/30 06:47:06;;;;;;;10.50;2.80;;;8.60;80.50;;;;;;5109336;28;20063;-66
2023/01/30 06:49:31;;;;;;;8.07;2.35;;;8.60;80.40;;;;;;5112386;28;20036;-65
2023/01/30 06:51:57;;;;;;;8.20;2.42;;;8.60;80.30;;;;;;5112416;27;20110;-65
2023/01/30 06:54:23;;;;;;;11.85;2.88;;;8.60;80.10;;;;;;5090797;28;20024;-67
2023/01/30 06:56:49;;;;;;;11.18;2.95;;;8.70;80.00;;;;;;5099477;28;20028;-67
2023/01/30 06:59:14;;;;;;;13.50;2.92;;;8.70;79.80;;;;;;5114465;28;20034;-67
2023/01/30 07:01:40;;;;;;;10.32;2.30;;;8.60;79.60;;;;;;5101512;28;20020;-66
2023/01/30 07:04:06;;;;;;;10.40;2.47;;;8.60;79.60;;;;;;5112314;28;20024;-66
2023/01/30 07:06:31;;;;;;;11.15;3.38;;;8.60;79.50;;;;;;5114680;27;20127;-67
2023/01/30 07:08:57;;;;;;;11.25;2.78;;;8.60;79.40;;;;;;5114601;28;20039;-66
2023/01/30 07:11:24;;;;;;;11.73;3.05;;;8.50;79.20;;;;;;5110054;28;20057;-67
2023/01/30 07:13:50;;;;;;;10.65;2.05;;;8.50;79.10;;;;;;5109344;28;20031;-67
2023/01/30 07:16:16;;;;;;;13.30;2.75;;;8.50;79.10;;;;;;5110689;28;20023;-67
2023/01/30 07:18:42;;;;;;;8.35;2.08;;;8.50;79.00;;;;;;5115376;28;20031;-67
2023/01/30 07:21:07;;;;;;;11.93;2.33;;;8.50;78.90;;;;;;5111251;27;20024;-67
2023/01/30 07:23:33;;;;;;;9.05;2.50;;;8.50;78.80;;;;;;5104851;27;20027;-67
2023/01/30 07:26:03;;;;;;;15.48;3.25;;;8.40;78.70;;;;;;5102881;27;20440;-67
2023/01/30 07:28:29;;;;;;;13.13;2.67;;;8.40;78.50;;;;;;5096236;27;20031;-66
2023/01/30 07:30:58;;;;;;;6.22;1.98;;;8.40;78.50;;;;;;5102154;27;20059;-67
2023/01/30 07:33:24;;;;;;;11.60;2.95;;;8.40;78.40;;;;;;5110131;27;20512;-67
2023/01/30 07:35:50;;;;;;;12.57;2.80;;;8.40;78.30;;;;;;5102753;27;20110;-67
2023/01/30 07:38:16;;;;;;;10.32;2.85;;;8.40;78.20;;;;;;5100083;27;20031;-66
2023/01/30 07:40:41;;;;;;;12.27;2.78;;;8.40;78.20;;;;;;5096660;27;20088;-67
2023/01/30 07:43:11;;;;;;;16.13;3.50;;;8.30;78.00;;;;;;5095686;27;20448;-67
2023/01/30 07:45:46;;;;;;;13.90;3.15;;;8.30;78.00;;;;;;5096593;27;20032;-67
2023/01/30 07:48:14;;;;;;;11.85;2.85;;;8.30;77.80;;;;;;5100253;27;20417;-67
2023/01/30 07:50:41;;;;;;;10.63;2.50;;;8.30;77.80;;;;;;5103117;27;20020;-67
2023/01/30 07:53:10;;;;;;;13.30;3.63;;;8.30;77.80;;;;;;5100768;27;20032;-67
2023/01/30 07:55:36;;;;;;;11.82;2.72;;;8.30;77.70;;;;;;5094983;28;20022;-66
2023/01/30 07:58:02;;;;;;;16.63;3.97;;;8.30;77.60;;;;;;5080575;28;20027;-66
2023/01/30 08:00:28;;;;;;;12.77;3.63;;;8.30;77.60;;;;;;5108544;27;20047;-65
2023/01/30 08:02:54;;;;;;;16.52;3.38;;;8.30;77.40;;;;;;5105035;27;20070;-67
2023/01/30 08:05:20;;;;;;;11.63;2.33;;;8.30;77.30;;;;;;5096350;27;20363;-67
2023/01/30 08:07:48;;;;;;;11.40;3.67;;;8.30;77.20;;;;;;5087114;28;20028;-66
2023/01/30 08:10:14;;;;;;;13.80;3.50;;;8.30;77.10;;;;;;5101903;28;20390;-66
2023/01/30 08:12:40;;;;;;;15.20;3.08;;;8.30;76.90;;;;;;5098147;28;20034;-66
2023/01/30 08:15:08;;;;;;;10.85;2.88;;;8.30;76.80;;;;;;5099572;27;20344;-67
2023/01/30 08:17:34;;;;;;;13.98;2.92;;;8.40;76.60;;;;;;5102019;28;20145;-66
2023/01/30 08:19:59;;;;;;;13.07;2.92;;;8.40;76.50;;;;;;5097051;28;20036;-66
2023/01/30 08:22:25;;;;;;;12.05;2.78;;;8.40;76.30;;;;;;5103399;28;20031;-67
2023/01/30 08:24:51;;;;;;;12.70;2.72;;;8.50;76.10;;;;;;5098647;28;20024;-66
2023/01/30 08:27:16;;;;;;;16.15;4.05;;;8.50;75.80;;;;;;5096729;28;20036;-66
2023/01/30 08:29:43;;;;;;;14.30;3.13;;;8.60;75.70;;;;;;5084172;28;20240;-66
2023/01/30 08:32:09;;;;;;;12.73;3.45;;;8.60;75.50;;;;;;5109777;28;20073;-66
2023/01/30 08:34:35;;;;;;;13.82;3.50;;;8.70;75.20;;;;;;5097764;28;20027;-67
2023/01/30 08:37:01;;;;;;;11.07;3.25;;;8.80;74.90;;;;;;5098316;28;20035;-67
2023/01/30 08:39:27;;;;;;;13.32;2.25;;;8.80;74.60;;;;;;5120199;28;20460;-67
2023/01/30 08:41:53;;;;;;;11.02;3.35;;;8.90;74.50;;;;;;5103936;28;20023;-67
2023/01/30 08:44:18;;;;;;;12.25;2.55;;;8.90;74.10;;;;;;5106517;28;20030;-67
2023/01/30 08:46:44;;;;;;;14.32;2.78;;;9.00;74.00;;;;;;5108694;28;20066;-67
2023/01/30 08:49:10;;;;;;;12.27;2.70;;;9.00;73.70;;;;;;5111696;28;20118;-67
2023/01/30 08:51:36;;;;;;;13.82;3.30;;;9.10;73.50;;;;;;5113399;28;20098;-66
2023/01/30 08:54:02;;;;;;;14.10;3.55;;;9.10;73.20;;;;;;5110369;28;20059;-67
2023/01/30 08:56:28;;;;;;;11.32;2.75;;;9.20;73.00;;;;;;5082535;28;20107;-67
2023/01/30 08:58:53;;;;;;;10.80;2.60;;;9.30;72.80;;;;;;5110404;28;20031;-67
2023/01/30 09:01:19;;;;;;;12.80;2.45;;;9.40;72.50;;;;;;5113061;28;20152;-67
2023/01/30 09:03:45;;;;;;;9.45;2.35;;;9.50;72.20;;;;;;5108798;28;20028;-67
2023/01/30 09:06:11;;;;;;;12.40;2.65;;;9.60;71.70;;;;;;5106396;28;20091;-67
2023/01/30 09:08:36;;;;;;;9.57;2.42;;;9.80;71.40;;;;;;5109150;28;20034;-68
2023/01/30 09:11:04;;;;;;;11.88;2.63;;;9.90;71.20;;;;;;5113516;28;20028;-67
2023/01/30 09:13:31;;;;;;;14.13;2.70;;;10.00;70.90;;;;;;5113797;28;20023;-68
2023/01/30 09:15:57;;;;;;;13.85;3.50;;;9.90;70.70;;;;;;5111395;28;20135;-68
2023/01/30 09:18:23;;;;;;;12.02;2.80;;;9.80;70.70;;;;;;5111737;28;20364;-68
2023/01/30 09:20:49;;;;;;;10.20;2.78;;;9.70;70.70;;;;;;5108717;28;20020;-68
2023/01/30 09:23:16;;;;;;;10.27;3.00;;;9.60;70.90;;;;;;5111726;28;20027;-69
2023/01/30 09:25:45;;;;;;;13.27;2.65;;;9.50;70.90;;;;;;5114424;28;20063;-67
2023/01/30 09:28:11;;;;;;;11.70;2.95;;;9.40;70.90;;;;;;5109597;28;20023;-68
2023/01/30 09:30:37;;;;;;;17.38;2.92;;;9.40;71.00;;;;;;5107412;28;20024;-68
2023/01/30 09:33:03;;;;;;;13.60;2.97;;;9.40;71.00;;;;;;5112049;28;20023;-68
2023/01/30 09:35:29;;;;;;;12.35;2.90;;;9.40;70.90;;;;;;5104544;28;20123;-69
2023/01/30 09:37:55;;;;;;;21.67;2.95;;;9.30;70.50;;;;;;5093786;28;20023;-69
2023/01/30 09:40:25;;;;;;;11.82;2.67;;;9.30;70.70;;;;;;5116891;28;20028;-68
2023/01/30 09:42:54;;;;;;;12.07;2.67;;;9.30;70.70;;;;;;5116540;28;20066;-69
2023/01/30 09:45:28;;;;;;;12.38;2.65;;;9.30;70.60;;;;;;5110262;28;20080;-69
2023/01/30 09:48:17;;;;;;;13.25;2.75;;;9.30;70.60;;;;;;5088109;28;20035;-68
2023/01/30 09:51:28;;;;;;;19.15;3.25;;;9.30;70.60;;;;;;5105095;28;20031;-68
2023/01/30 09:54:21;;;;;;;13.93;3.38;;;9.20;70.60;;;;;;5099192;27;20119;-68
2023/01/30 09:56:54;;;;;;;10.57;2.50;;;9.30;70.60;;;;;;5111910;28;20216;-69
2023/01/30 09:59:26;;;;;;;13.63;3.00;;;9.20;70.60;;;;;;5090964;28;20026;-67
2023/01/30 10:01:55;;;;;;;13.90;3.38;;;9.30;70.70;;;;;;5119682;27;20123;-67
2023/01/30 10:04:24;;;;;;;15.23;3.00;;;9.30;70.50;;;;;;5106888;27;20030;-69
2023/01/30 10:07:15;;;;;;;13.25;2.55;;;9.30;70.40;;;;;;5102658;27;20024;-68
2023/01/30 10:09:52;;;;;;;14.70;3.07;;;9.40;70.40;;;;;;5121986;27;20051;-70
2023/01/30 10:12:29;;;;;;;13.52;3.45;;;9.40;70.30;;;;;;5126232;27;20015;-66
2023/01/30 10:15:23;;;;;;;10.00;2.42;;;9.40;70.10;;;;;;5117037;27;20038;-66
2023/01/30 10:18:10;;;;;;;9.15;2.85;;;9.50;70.10;;;;;;5112564;27;20422;-66
2023/01/30 10:20:48;;;;;;;10.75;2.47;;;9.50;70.00;;;;;;5102433;27;20028;-66
2023/01/30 10:23:19;;;;;;;12.10;3.28;;;9.60;70.00;;;;;;5122046;27;20031;-65
2023/01/30 10:25:51;;;;;;;;;;;9.70;69.80;;;;;;5118179;27;20059;-65
2023/01/30 10:28:58;;;;;;;12.35;2.50;;;9.60;69.80;;;;;;5119036;27;20017;-68
2023/01/30 10:31:29;;;;;;;13.25;2.50;;;9.60;69.80;;;;;;5107461;28;20024;-65
2023/01/30 10:33:59;;;;;;;11.68;2.63;;;9.50;69.80;;;;;;5109195;28;20434;-65
2023/01/30 10:36:40;;;;;;;10.52;2.95;;;9.50;69.80;;;;;;5108456;28;20053;-66
2023/01/30 10:39:29;;;;;;;12.63;2.78;;;9.50;69.90;;;;;;5115239;28;20452;-66
2023/01/30 10:42:21;;;;;;;17.05;2.75;;;9.50;69.90;;;;;;5114704;28;20097;-66
2023/01/30 10:44:47;;;;;;;13.45;2.45;;;9.50;69.80;;;;;;5090885;28;20039;-66
2023/01/30 10:47:29;;;;;;;13.55;2.50;;;9.40;69.90;;;;;;5106626;28;20297;-66
2023/01/30 10:50:04;;;;;;;15.30;3.17;;;9.40;70.00;;;;;;5107666;28;20043;-66
2023/01/30 10:52:42;;;;;;;12.45;2.95;;;9.40;70.00;;;;;;5114461;27;20042;-66
2023/01/30 10:55:34;;;;;;;12.65;3.40;;;9.40;69.80;;;;;;5107678;27;20363;-66
2023/01/30 10:58:12;;;;;;;12.20;2.67;;;9.50;69.70;;;;;;5113674;27;20110;-66
2023/01/30 11:01:07;;;;;;;9.40;2.42;;;9.50;69.80;;;;;;5100469;28;20115;-66
2023/01/30 11:03:45;;;;;;;12.73;2.45;;;9.60;69.60;;;;;;5116550;27;20043;-66
2023/01/30 11:06:17;;;;;;;12.85;2.20;;;9.50;69.40;;;;;;5105081;27;20043;-66
2023/01/30 11:08:44;;;;;;;12.85;2.70;;;9.60;69.40;;;;;;5113761;27;20028;-66
2023/01/30 11:11:31;;;;;;;12.57;3.15;;;9.60;69.20;;;;;;5120892;27;20031;-67
2023/01/30 11:14:05;;;;;;;13.23;2.80;;;9.70;69.20;;;;;;5099736;28;20027;-67
2023/01/30 11:16:39;;;;;;;13.30;2.65;;;9.70;69.10;;;;;;5116873;27;20015;-66
2023/01/30 11:19:05;;;;;;;13.40;2.88;;;9.70;69.00;;;;;;5099193;28;20027;-67
2023/01/30 11:21:32;;;;;;;12.10;2.35;;;9.90;68.90;;;;;;5119980;27;20035;-67
2023/01/30 11:24:05;;;;;;;15.63;3.17;;;10.00;68.50;;;;;;5106421;28;20027;-67
2023/01/30 11:26:36;;;;;;;12.40;2.58;;;10.10;68.00;;;;;;5113975;27;20035;-67
2023/01/30 11:29:27;;;;;;;15.32;3.20;;;10.20;68.00;;;;;;5109141;27;20459;-66
2023/01/30 11:31:53;;;;;;;16.33;3.25;;;10.20;67.70;;;;;;5090846;27;20040;-67
2023/01/30 11:34:21;;;;;;;14.35;3.10;;;10.20;67.80;;;;;;5116216;27;20435;-67
2023/01/30 11:36:48;;;;;;;13.27;2.55;;;10.30;67.70;;;;;;5119182;27;20459;-67
2023/01/30 11:39:17;;;;;;;15.60;3.00;;;10.40;67.40;;;;;;5109774;27;20020;-67
2023/01/30 11:41:55;;;;;;;16.98;3.47;;;10.30;67.30;;;;;;5108418;27;20088;-67
2023/01/30 11:44:34;;;;;;;10.57;2.63;;;10.30;67.20;;;;;;5089868;28;20072;-67
2023/01/30 11:47:07;;;;;;;8.63;2.17;;;10.40;66.90;;;;;;5112795;28;20023;-67
2023/01/30 11:49:38;;;;;;;11.00;2.58;;;10.30;66.90;;;;;;5105058;28;20071;-67
2023/01/30 11:52:05;;;;;;;11.50;2.67;;;10.40;66.80;;;;;;5112371;28;20031;-67
2023/01/30 11:54:33;;;;;;;11.35;2.88;;;10.40;66.70;;;;;;5105192;28;20055;-67
2023/01/30 11:57:02;;;;;;;9.55;2.80;;;10.50;66.40;;;;;;5113111;28;20107;-65
2023/01/30 11:59:45;;;;;;;9.07;2.55;;;10.60;66.10;;;;;;5111276;28;20111;-67
2023/01/30 12:02:25;;;;;;;12.73;2.75;;;10.60;66.00;;;;;;5111277;28;20432;-65
2023/01/30 12:04:55;;;;;;;16.00;3.00;;;10.60;65.90;;;;;;5111160;28;20123;-66
2023/01/30 12:07:24;;;;;;;15.15;2.90;;;10.60;65.80;;;;;;5107158;28;20395;-65
2023/01/30 12:09:53;;;;;;;11.52;2.70;;;10.60;65.60;;;;;;5110418;28;20024;-65
2023/01/30 12:12:31;;;;;;;8.40;2.08;;;10.60;65.40;;;;;;5112452;28;20102;-66
2023/01/30 12:15:29;;;;;;;14.48;2.67;;;10.60;65.20;;;;;;5113036;28;20024;-66
2023/01/30 12:18:25;;;;;;;12.43;2.42;;;10.50;64.90;;;;;;5106649;28;20020;-65
2023/01/30 12:21:29;;;;;;;13.18;3.08;;;10.50;64.90;;;;;;5111276;28;20064;-66
2023/01/30 12:24:31;;;;;;;13.23;2.58;;;10.50;64.80;;;;;;5089784;28;20096;-66
2023/01/30 12:27:08;;;;;;;15.80;3.53;;;10.40;64.70;;;;;;5111695;28;20138;-66
2023/01/30 12:29:53;;;;;;;12.55;2.70;;;10.40;64.70;;;;;;5101930;28;20030;-66
2023/01/30 12:32:24;;;;;;;13.30;2.85;;;10.40;64.60;;;;;;5105186;28;20020;-67
2023/01/30 12:34:50;;;;;;;13.17;2.70;;;10.30;64.70;;;;;;5099950;28;20026;-66
2023/01/30 12:37:40;;;;;;;16.60;3.15;;;10.30;64.70;;;;;;5108484;28;20626;-67
2023/01/30 12:40:34;;;;;;;16.80;3.22;;;10.40;64.60;;;;;;5106076;28;20024;-66
2023/01/30 12:43:05;;;;;;;13.98;2.80;;;10.30;64.40;;;;;;5112506;28;20031;-66
2023/01/30 12:45:50;;;;;;;10.40;3.03;;;10.40;64.50;;;;;;5111613;28;20059;-65
2023/01/30 12:48:28;;;;;;;13.00;2.38;;;10.40;64.30;;;;;;5094278;28;20052;-66
2023/01/30 12:51:00;;;;;;;12.57;2.30;;;10.40;64.20;;;;;;5102352;28;20338;-65
2023/01/30 12:54:05;;;;;;;15.25;2.95;;;10.40;64.10;;;;;;5113568;28;20020;-66
2023/01/30 12:56:51;;;;;;;14.32;3.20;;;10.50;63.90;;;;;;5109802;28;20127;-66
2023/01/30 12:59:34;;;;;;;13.10;2.80;;;10.50;63.80;;;;;;5111251;28;20448;-66
2023/01/30 13:02:17;;;;;;;14.18;3.42;;;10.50;63.60;;;;;;5108047;28;20044;-67
2023/01/30 13:04:55;;;;;;;13.68;2.38;;;10.50;63.30;;;;;;5112966;28;20071;-66
2023/01/30 13:07:49;;;;;;;10.13;2.42;;;10.40;63.30;;;;;;5094684;28;20070;-66
2023/01/30 13:10:35;;;;;;;8.02;2.25;;;10.40;63.20;;;;;;5111287;28;20451;-66
2023/01/30 13:13:07;;;;;;;14.30;3.42;;;10.30;63.30;;;;;;5104377;28;20043;-65